createdAt,value
2023-04-05T00:01:12.423Z,14.02
2023-04-05T00:03:40.991Z,13.99
2023-04-05T00:06:08.755Z,14.02
2023-04-05T00:08:37.263Z,14.09
2023-04-05T00:11:04.744Z,14.06
2023-04-05T00:13:32.206Z,13.81
2023-04-05T00:16:01.318Z,13.72
2023-04-05T00:18:34.453Z,13.69
2023-04-05T00:21:02.019Z,13.91
2023-04-05T00:23:29.917Z,13.96
2023-04-05T00:25:57.337Z,13.94
2023-04-05T00:28:24.845Z,13.75
2023-04-05T00:30:52.851Z,13.95
2023-04-05T00:33:20.642Z,13.75
2023-04-05T00:35:49.318Z,13.87
2023-04-05T00:38:17.016Z,13.84
2023-04-05T00:40:44.829Z,13.71
2023-04-05T00:43:12.907Z,13.63
2023-04-05T00:45:40.373Z,13.86
2023-04-05T00:48:08.969Z,13.74
2023-04-05T00:50:37.018Z,13.82
2023-04-05T00:53:05.529Z,13.75
2023-04-05T00:55:34.707Z,13.63
2023-04-05T00:58:02.274Z,13.61
2023-04-05T01:00:30.476Z,13.67
2023-04-05T01:03:03.701Z,13.73
2023-04-05T01:05:44.270Z,13.70
2023-04-05T01:08:21.570Z,13.61
2023-04-05T01:10:56.382Z,13.77
2023-04-05T01:13:25.918Z,13.65
2023-04-05T01:15:53.924Z,13.64
2023-04-05T01:18:22.133Z,13.64
2023-04-05T01:20:59.569Z,13.79
2023-04-05T01:24:00.148Z,13.52
2023-04-05T01:26:53.738Z,13.63
2023-04-05T01:29:39.666Z,13.62
2023-04-05T01:32:10.205Z,13.70
2023-04-05T01:34:51.799Z,13.69
2023-04-05T01:37:23.960Z,13.59
2023-04-05T01:39:51.538Z,13.57
2023-04-05T01:42:27.014Z,13.50
2023-04-05T01:44:56.459Z,13.26
2023-04-05T01:47:24.199Z,13.55
2023-04-05T01:49:51.541Z,13.53
2023-04-05T01:52:19.037Z,13.64
2023-04-05T01:54:46.450Z,13.42
2023-04-05T01:57:13.840Z,13.44
2023-04-05T01:59:41.257Z,13.45
2023-04-05T02:02:09.068Z,13.50
2023-04-05T02:04:37.188Z,13.53
2023-04-05T02:07:05.541Z,13.49
2023-04-05T02:09:33.339Z,13.49
2023-04-05T02:12:01.694Z,13.43
2023-04-05T02:14:36.077Z,13.50
2023-04-05T02:17:04.205Z,13.57
2023-04-05T02:19:37.300Z,13.55
2023-04-05T02:22:05.019Z,13.46
2023-04-05T02:24:32.391Z,13.50
2023-04-05T02:26:59.801Z,13.58
2023-04-05T02:29:28.137Z,13.54
2023-04-05T02:31:55.988Z,13.56
2023-04-05T02:34:23.472Z,13.42
2023-04-05T02:36:51.637Z,13.40
2023-04-05T02:39:19.503Z,13.27
2023-04-05T02:41:47.827Z,13.32
2023-04-05T02:44:15.560Z,13.34
2023-04-05T02:46:43.025Z,13.11
2023-04-05T02:49:10.586Z,13.24
2023-04-05T02:51:38.245Z,13.27
2023-04-05T02:54:05.940Z,13.22
2023-04-05T02:56:33.421Z,13.29
2023-04-05T02:59:01.443Z,13.23
2023-04-05T03:01:28.977Z,13.27
2023-04-05T03:04:04.196Z,13.38
2023-04-05T03:06:31.736Z,13.23
2023-04-05T03:08:59.162Z,13.06
2023-04-05T03:11:26.596Z,13.26
2023-04-05T03:13:54.890Z,13.38
2023-04-05T03:16:22.772Z,13.26
2023-04-05T03:18:50.517Z,13.31
2023-04-05T03:21:24.511Z,13.21
2023-04-05T03:23:52.083Z,13.21
2023-04-05T03:26:19.785Z,13.23
2023-04-05T03:28:47.533Z,13.27
2023-04-05T03:31:14.936Z,13.19
2023-04-05T03:33:42.709Z,13.20
2023-04-05T03:36:10.335Z,13.31
2023-04-05T03:38:39.760Z,13.39
2023-04-05T03:41:12.474Z,13.51
2023-04-05T03:43:40.871Z,13.33
2023-04-05T03:46:08.273Z,13.30
2023-04-05T03:48:38.830Z,13.30
2023-04-05T03:51:08.157Z,13.31
2023-04-05T03:53:35.703Z,13.36
2023-04-05T03:56:03.168Z,13.33
2023-04-05T03:58:30.787Z,13.31
2023-04-05T04:00:58.413Z,13.41
2023-04-05T04:03:26.319Z,13.31
2023-04-05T04:05:54.160Z,13.48
2023-04-05T04:08:22.020Z,13.36
2023-04-05T04:10:50.125Z,13.56
2023-04-05T04:13:19.829Z,13.33
2023-04-05T04:15:47.903Z,13.45
2023-04-05T04:18:17.498Z,13.37
2023-04-05T04:20:45.702Z,13.41
2023-04-05T04:23:14.621Z,13.43
2023-04-05T04:25:46.194Z,13.51
2023-04-05T04:28:19.649Z,13.52
2023-04-05T04:30:47.014Z,13.69
2023-04-05T04:33:14.707Z,13.70
2023-04-05T04:35:42.689Z,13.65
2023-04-05T04:38:21.835Z,13.70
2023-04-05T04:40:53.927Z,13.77
2023-04-05T04:43:27.368Z,13.71
2023-04-05T04:45:55.742Z,13.74
2023-04-05T04:48:23.381Z,13.82
2023-04-05T04:50:54.874Z,13.94
2023-04-05T04:53:24.179Z,13.89
2023-04-05T04:55:59.799Z,13.89
2023-04-05T04:58:27.708Z,14.05
2023-04-05T05:00:57.277Z,14.24
2023-04-05T05:03:26.380Z,14.19
2023-04-05T05:05:53.971Z,14.20
2023-04-05T05:08:22.043Z,14.14
2023-04-05T05:10:53.625Z,14.21
2023-04-05T05:13:22.885Z,14.17
2023-04-05T05:15:50.280Z,14.20
2023-04-05T05:18:17.975Z,14.51
2023-04-05T05:20:45.359Z,14.62
2023-04-05T05:23:12.782Z,14.74
2023-04-05T05:25:40.352Z,14.67
2023-04-05T05:28:07.883Z,14.86
2023-04-05T05:30:38.884Z,14.88
2023-04-05T05:33:08.683Z,14.97
2023-04-05T05:35:38.217Z,15.10
2023-04-05T05:38:08.372Z,15.18
2023-04-05T05:40:37.391Z,15.23
2023-04-05T05:43:05.109Z,15.28
2023-04-05T05:45:32.925Z,15.22
2023-04-05T05:48:01.107Z,15.36
2023-04-05T05:50:33.085Z,15.19
2023-04-05T05:53:01.814Z,15.22
2023-04-05T05:55:29.582Z,15.30
2023-04-05T05:57:57.393Z,15.31
2023-04-05T06:00:24.910Z,15.20
2023-04-05T06:03:12.445Z,15.47
2023-04-05T06:05:39.866Z,15.28
2023-04-05T06:08:08.366Z,15.52
2023-04-05T06:10:37.956Z,15.58
2023-04-05T06:13:05.793Z,15.82
2023-04-05T06:15:33.673Z,15.88
2023-04-05T06:18:01.841Z,15.97
2023-04-05T06:20:29.520Z,16.03
2023-04-05T06:23:04.117Z,16.15
2023-04-05T06:25:32.062Z,16.35
2023-04-05T06:27:59.535Z,16.41
2023-04-05T06:30:28.465Z,16.48
2023-04-05T06:32:57.077Z,16.54
2023-04-05T06:35:25.172Z,16.50
2023-04-05T06:52:25.068Z,16.52
2023-04-05T06:54:53.580Z,16.56
2023-04-05T06:57:22.090Z,16.84
2023-04-05T06:59:52.764Z,16.95
2023-04-05T07:02:22.928Z,17.10
2023-04-05T07:04:51.024Z,17.21
2023-04-05T09:55:44.493Z,14.25
2023-04-05T09:58:19.032Z,14.65
2023-04-05T10:00:59.993Z,15.10
2023-04-05T10:03:32.887Z,15.23
2023-04-05T10:06:01.253Z,15.38
2023-04-05T10:08:33.385Z,15.57
2023-04-05T10:11:05.082Z,15.54
2023-04-05T10:13:34.714Z,15.38
2023-04-05T10:16:08.893Z,15.55
2023-04-05T10:18:46.592Z,15.46
2023-04-05T10:21:23.926Z,15.26
2023-04-05T10:24:14.005Z,15.11
2023-04-05T10:26:55.130Z,15.19
2023-04-05T10:29:33.571Z,15.14
2023-04-05T10:32:19.265Z,14.99
2023-04-05T10:35:04.622Z,15.13
2023-04-05T10:37:38.669Z,15.11
2023-04-05T10:40:11.874Z,15.01
2023-04-05T10:42:46.935Z,15.13
2023-04-05T10:45:19.706Z,15.16
2023-04-05T10:47:58.285Z,15.17
2023-04-05T10:50:25.966Z,15.02
2023-04-05T10:52:53.917Z,15.14
2023-04-05T10:55:22.092Z,15.04
2023-04-05T10:57:51.122Z,15.07
2023-04-05T11:00:19.547Z,15.06
2023-04-05T11:02:56.072Z,14.79
2023-04-05T11:05:36.010Z,15.04
2023-04-05T11:08:08.423Z,15.16
2023-04-05T11:10:39.287Z,15.01
2023-04-05T11:13:09.145Z,15.14
2023-04-05T11:15:37.441Z,15.22
2023-04-05T11:18:22.518Z,15.26
2023-04-05T11:20:55.934Z,15.30
2023-04-05T11:23:25.697Z,15.26
2023-04-05T11:25:57.741Z,15.23
2023-04-05T11:28:42.370Z,15.10
2023-04-05T11:31:18.613Z,15.15
2023-04-05T11:34:10.195Z,15.28
2023-04-05T11:36:42.233Z,15.30
2023-04-05T11:39:18.752Z,15.39
2023-04-05T11:42:13.183Z,15.28
2023-04-05T11:44:48.101Z,15.24
2023-04-05T11:47:21.995Z,15.06
2023-04-05T11:49:51.194Z,14.95
2023-04-05T11:52:21.392Z,15.02
2023-04-05T11:54:50.168Z,15.14
2023-04-05T11:57:22.509Z,15.06
2023-04-05T11:59:54.293Z,15.13
2023-04-05T12:02:22.285Z,14.99
2023-04-05T12:04:57.881Z,15.06
2023-04-05T12:07:32.115Z,14.96
2023-04-05T12:10:07.163Z,15.05
2023-04-05T12:12:40.677Z,15.32
2023-04-05T12:15:11.871Z,15.41
2023-04-05T12:17:44.220Z,15.38
2023-04-05T12:20:14.512Z,15.38
2023-04-05T12:22:44.847Z,15.48
2023-04-05T12:25:13.616Z,15.46
2023-04-05T12:27:42.250Z,15.61
2023-04-05T12:30:18.873Z,15.63
2023-04-05T12:32:54.482Z,15.78
2023-04-05T12:35:24.760Z,15.82
2023-04-05T12:37:52.724Z,15.68
2023-04-05T12:40:22.281Z,15.85
2023-04-05T12:42:50.778Z,15.59
2023-04-05T12:45:18.978Z,15.70
2023-04-05T12:47:52.753Z,15.55
2023-04-05T12:50:27.067Z,15.70
2023-04-05T12:52:58.387Z,15.62
2023-04-05T12:55:27.825Z,15.80
2023-04-05T12:57:59.721Z,15.68
2023-04-05T13:00:29.841Z,15.81
2023-04-05T13:02:59.813Z,15.67
2023-04-05T13:05:29.943Z,15.80
2023-04-05T13:07:59.444Z,15.86
2023-04-05T13:10:27.657Z,15.74
2023-04-05T13:12:56.055Z,15.81
2023-04-05T13:15:23.820Z,15.80
2023-04-05T13:17:53.479Z,15.89
2023-04-05T13:20:22.634Z,15.76
2023-04-05T13:22:51.253Z,15.87
2023-04-05T13:25:19.147Z,15.91
2023-04-05T13:27:49.025Z,15.82
2023-04-05T13:30:17.368Z,15.80
2023-04-05T13:32:50.820Z,15.72
2023-04-05T13:35:18.465Z,15.70
2023-04-05T13:37:46.100Z,15.87
2023-04-05T13:40:13.732Z,15.94
2023-04-05T13:42:41.569Z,15.95
2023-04-05T13:45:09.837Z,15.96
2023-04-05T13:47:38.014Z,16.03
2023-04-05T13:50:06.367Z,16.00
2023-04-05T13:52:34.429Z,16.05
2023-04-05T13:55:03.960Z,15.91
2023-04-05T13:57:32.343Z,16.00
2023-04-05T14:00:00.045Z,15.92
2023-04-05T14:02:45.429Z,15.74
2023-04-05T14:05:13.317Z,15.89
2023-04-05T14:07:41.189Z,15.69
2023-04-05T14:10:10.229Z,15.69
2023-04-05T14:12:39.465Z,15.67
2023-04-05T14:15:07.485Z,15.77
2023-04-05T14:17:36.861Z,15.72
2023-04-05T14:20:04.931Z,15.38
2023-04-05T14:22:32.922Z,14.87
2023-04-05T14:25:00.576Z,15.07
2023-04-05T14:27:29.056Z,15.01
2023-04-05T14:29:57.331Z,14.88
2023-04-05T14:32:26.125Z,14.82
2023-04-05T14:34:53.922Z,14.87
2023-04-05T14:37:21.465Z,14.67
2023-04-05T14:39:49.150Z,14.62
2023-04-05T14:42:16.854Z,14.80
2023-04-05T14:44:44.992Z,14.75
2023-04-05T14:47:12.621Z,14.55
2023-04-05T14:49:40.234Z,14.60
2023-04-05T14:52:07.928Z,14.44
2023-04-05T14:54:35.815Z,14.26
2023-04-05T14:57:05.489Z,14.35
2023-04-05T14:59:33.984Z,14.24
2023-04-05T15:02:01.894Z,14.05
2023-04-05T15:04:31.173Z,14.13
2023-04-05T15:06:58.628Z,13.88
2023-04-05T15:09:25.994Z,13.81
2023-04-05T15:11:55.487Z,13.91
2023-04-05T15:14:31.663Z,13.84
2023-04-05T15:16:59.690Z,13.72
2023-04-05T15:19:27.740Z,13.73
2023-04-05T15:21:55.585Z,13.65
2023-04-05T15:24:23.067Z,13.65
2023-04-05T15:26:50.522Z,13.72
2023-04-05T15:29:19.945Z,13.54
2023-04-05T15:31:48.153Z,13.59
2023-04-05T15:34:15.559Z,13.64
2023-04-05T15:36:43.052Z,13.64
2023-04-05T15:39:10.414Z,13.54
2023-04-05T15:41:38.224Z,13.67
2023-04-05T15:44:09.178Z,13.43
2023-04-05T15:46:37.022Z,13.56
2023-04-05T15:49:04.811Z,13.58
2023-04-05T15:51:36.677Z,13.66
2023-04-05T15:54:04.205Z,13.54
2023-04-05T15:56:32.250Z,13.34
2023-04-05T15:59:00.226Z,13.31
2023-04-05T16:01:27.989Z,13.25
2023-04-05T16:03:56.429Z,13.34
2023-04-05T16:06:28.344Z,13.31
2023-04-05T16:08:56.033Z,13.35
2023-04-05T16:11:23.842Z,13.37
2023-04-05T16:13:57.271Z,13.37
2023-04-05T16:16:35.295Z,13.20
2023-04-05T16:19:10.573Z,13.28
2023-04-05T16:21:39.641Z,13.28
2023-04-05T16:24:07.166Z,13.29
2023-04-05T16:26:34.856Z,13.24
2023-04-05T16:29:02.894Z,13.22
2023-04-05T16:31:30.828Z,13.25
2023-04-05T16:33:58.435Z,13.07
2023-04-05T16:36:26.051Z,13.20
2023-04-05T16:38:53.555Z,13.09
2023-04-05T16:41:21.049Z,13.21
2023-04-05T16:43:49.151Z,13.24
2023-04-05T16:46:16.642Z,13.15
2023-04-05T16:48:44.205Z,13.10
2023-04-05T16:51:13.010Z,13.06
2023-04-05T16:53:40.481Z,13.10
2023-04-05T16:56:08.006Z,13.16
2023-04-05T16:58:35.580Z,13.23
2023-04-05T17:01:03.183Z,13.22
2023-04-05T17:03:31.377Z,13.23
2023-04-05T17:05:59.432Z,13.34
2023-04-05T17:08:29.198Z,13.10
2023-04-05T17:10:57.946Z,13.19
2023-04-05T17:13:25.558Z,13.27
2023-04-05T17:15:53.644Z,13.11
2023-04-05T17:18:21.213Z,13.11
2023-04-05T17:20:48.669Z,13.05
2023-04-05T17:23:17.101Z,13.24
2023-04-05T17:25:44.510Z,13.13
2023-04-05T17:28:13.178Z,13.34
2023-04-05T17:30:40.623Z,13.19
2023-04-05T17:33:09.967Z,13.29
2023-04-05T17:35:38.180Z,13.25
2023-04-05T17:38:06.290Z,13.36
2023-04-05T17:40:33.992Z,13.20
2023-04-05T17:43:01.455Z,13.18
2023-04-05T17:45:29.111Z,13.40
2023-04-05T17:47:58.086Z,13.36
2023-04-05T17:50:27.514Z,13.26
2023-04-05T17:52:54.934Z,13.24
2023-04-05T17:55:22.559Z,13.42
2023-04-05T17:57:50.077Z,13.40
2023-04-05T18:00:17.827Z,13.45
2023-04-05T18:02:48.983Z,13.41
2023-04-05T18:05:19.446Z,13.08
2023-04-05T18:07:47.063Z,13.10
2023-04-05T18:10:14.618Z,13.22
2023-04-05T18:12:42.120Z,13.31
2023-04-05T18:15:09.983Z,13.25
2023-04-05T18:17:40.714Z,13.25
2023-04-05T18:20:08.853Z,13.28
2023-04-05T18:22:38.104Z,13.29
2023-04-05T18:25:08.684Z,13.30
2023-04-05T18:27:36.179Z,13.28
2023-04-05T18:30:06.027Z,13.43
2023-04-05T18:32:34.478Z,13.43
2023-04-05T18:35:01.919Z,13.46
2023-04-05T18:37:30.299Z,13.43
2023-04-05T18:39:57.744Z,13.44
2023-04-05T18:42:25.566Z,13.52
2023-04-05T18:44:53.715Z,13.58
2023-04-05T18:47:21.696Z,13.59
2023-04-05T18:49:49.125Z,13.60
2023-04-05T18:52:22.607Z,13.63
2023-04-05T18:54:53.578Z,13.59
2023-04-05T18:57:21.029Z,13.39
2023-04-05T18:59:48.656Z,13.59
2023-04-05T19:02:16.225Z,13.63
2023-04-05T19:04:44.121Z,13.68
2023-04-05T19:07:11.543Z,13.51
2023-04-05T19:09:39.126Z,13.68
2023-04-05T19:12:06.855Z,13.61
2023-04-05T19:14:44.779Z,13.46
2023-04-05T19:17:13.090Z,13.55
2023-04-05T19:19:41.067Z,13.48
2023-04-05T19:22:11.252Z,13.35
2023-04-05T19:24:40.923Z,13.46
2023-04-05T19:27:08.404Z,13.54
2023-04-05T19:29:37.417Z,13.54
2023-04-05T19:32:05.074Z,13.43
2023-04-05T19:34:32.924Z,13.53
2023-04-05T19:37:00.992Z,13.38
2023-04-05T19:39:29.193Z,13.41
2023-04-05T19:41:57.845Z,13.41
2023-04-05T19:44:52.016Z,13.54
2023-04-05T19:47:23.601Z,13.34
2023-04-05T19:49:53.767Z,13.52
2023-04-05T19:52:46.861Z,13.55
2023-04-05T19:55:33.944Z,13.52
2023-04-05T19:58:05.916Z,13.41
2023-04-05T20:00:52.129Z,13.58
2023-04-05T20:03:41.077Z,13.42
2023-04-05T20:06:09.744Z,13.30
2023-04-05T20:08:41.667Z,13.36
2023-04-05T20:11:15.567Z,13.32
2023-04-05T20:13:51.874Z,13.34
2023-04-05T20:16:29.918Z,13.26
2023-04-05T20:19:09.709Z,13.55
2023-04-05T20:21:39.136Z,13.50
2023-04-05T20:24:14.943Z,13.57
2023-04-05T20:26:46.102Z,13.58
2023-04-05T20:29:17.121Z,13.48
2023-04-05T20:31:44.924Z,13.50
2023-04-05T20:34:21.347Z,13.39
2023-04-05T20:36:52.335Z,13.36
2023-04-05T20:39:23.654Z,13.31
2023-04-05T20:41:51.527Z,13.22
2023-04-05T20:44:25.038Z,13.28
2023-04-05T20:46:55.654Z,13.22
2023-04-05T20:49:24.304Z,13.20
2023-04-05T20:51:51.945Z,13.15
2023-04-05T20:54:20.424Z,12.99
2023-04-05T20:56:48.505Z,13.16
2023-04-05T20:59:17.158Z,13.17
2023-04-05T21:01:47.390Z,13.27
2023-04-05T21:04:16.858Z,13.17
2023-04-05T21:06:44.457Z,13.14
2023-04-05T21:09:11.948Z,13.14
2023-04-05T21:11:42.026Z,13.19
2023-04-05T21:14:09.545Z,13.00
2023-04-05T21:16:36.936Z,13.02
2023-04-05T21:19:04.341Z,13.03
2023-04-05T21:21:31.828Z,13.13
2023-04-05T21:23:59.273Z,12.80
2023-04-05T21:26:26.719Z,12.89
2023-04-05T21:28:54.202Z,12.85
2023-04-05T21:31:22.247Z,12.86
2023-04-05T21:33:49.672Z,13.00
2023-04-05T21:36:17.089Z,12.90
2023-04-05T21:38:45.859Z,12.89
2023-04-05T21:41:13.330Z,12.98
2023-04-05T21:43:42.871Z,12.98
2023-04-05T21:46:11.439Z,12.86
2023-04-05T21:48:39.000Z,13.00
2023-04-05T21:51:06.454Z,12.94
2023-04-05T21:53:34.490Z,13.03
2023-04-05T21:56:05.660Z,12.98
2023-04-05T21:58:33.580Z,13.00
2023-04-05T22:01:01.587Z,12.80
2023-04-05T22:03:30.004Z,12.86
2023-04-05T22:05:57.865Z,12.74
2023-04-05T22:08:26.827Z,12.67
2023-04-05T22:10:54.915Z,12.57
2023-04-05T22:13:24.234Z,12.73
2023-04-05T22:15:51.787Z,12.42
2023-04-05T22:18:19.207Z,12.37
2023-04-05T22:20:47.050Z,12.29
2023-04-05T22:23:14.435Z,12.43
2023-04-05T22:25:42.327Z,12.22
2023-04-05T22:28:11.183Z,12.38
2023-04-05T22:30:43.964Z,12.46
2023-04-05T22:33:13.821Z,12.48
2023-04-05T22:35:42.123Z,12.45
2023-04-05T22:38:13.597Z,12.45
2023-04-05T22:40:41.563Z,12.28
2023-04-05T22:43:09.730Z,12.17
2023-04-05T22:45:38.887Z,12.31
2023-04-05T22:48:07.162Z,12.05
2023-04-05T22:50:35.234Z,12.21
2023-04-05T22:53:02.823Z,11.92
2023-04-05T22:55:31.580Z,11.86
2023-04-05T22:57:58.967Z,11.73
2023-04-05T23:00:26.768Z,11.86
2023-04-05T23:02:54.534Z,11.94
2023-04-05T23:05:21.953Z,11.96
2023-04-05T23:07:49.355Z,11.76
2023-04-05T23:10:18.043Z,11.70
2023-04-05T23:12:48.439Z,11.77
2023-04-05T23:15:16.193Z,11.72
2023-04-05T23:17:43.682Z,11.71
2023-04-05T23:20:11.688Z,11.69
2023-04-05T23:22:39.137Z,11.46
2023-04-05T23:25:07.290Z,11.70
2023-04-05T23:27:34.867Z,11.75
2023-04-05T23:30:02.901Z,11.79
2023-04-05T23:32:31.062Z,11.93
2023-04-05T23:34:58.539Z,11.94
2023-04-05T23:37:26.143Z,11.88
2023-04-05T23:39:53.544Z,11.67
2023-04-05T23:42:26.112Z,11.54
2023-04-05T23:44:53.454Z,11.58
2023-04-05T23:47:21.019Z,11.79
2023-04-05T23:49:50.812Z,11.80
2023-04-05T23:52:18.157Z,11.69
2023-04-05T23:54:46.513Z,11.69
2023-04-05T23:57:14.723Z,11.81
2023-04-05T23:59:42.411Z,11.68
